Nearby METAR Reports

 

KCOU - Columbia, Missouri, USA
Distance from station: WNW 14mi, 23km
Updated: Thu, 18-Apr-2024 11:54pm CDT
Clear
Clear
 Wind from NNW
Wind: NNW 9 mph , 15 km/h
Temperature: 48°F , 9°C
Wind Chill: 44°F , 7°C
Dew Point: 43°F , 6°C
Humidity: 82%
Barometer: 30.14 inHg , 1020.7 hPa
Clouds: Clear
Visibility: 10 miles , 16 km
2024/04/19 04:54 KCOU 190454Z AUTO 34008KT 10SM CLR 09/06 A3014 RMK AO2 PK WND 35026/0409 SLP203 T00890061
KJEF - Jefferson City, Missouri, USA
Distance from station: SW 14mi, 23km
Updated: Thu, 18-Apr-2024 11:53pm CDT
Overcast
Overcast
 Wind from N
Wind: N 6 mph , 9 km/h
Temperature: 52°F , 11°C
Dew Point: 45°F , 7°C
Humidity: 77%
Barometer: 30.15 inHg , 1021 hPa
Clouds: Overcast
Visibility: 10 miles , 16 km
Cloud details: Few Clouds 2400 ft
Few Clouds 3000 ft
Overcast 8500 ft
2024/04/19 04:53 KJEF 190453Z AUTO 36005KT 10SM FEW024 FEW030 OVC085 11/07 A3015 RMK AO2 SLP198 T01110067
 
KMYJ - Mexico, Missouri, USA
Distance from station: NNE 29mi, 46km
Updated: Fri, 19-Apr-2024 12:35am CDT
Partly cloudy
Partly cloudy
 Wind from NW
Wind: NW 7 mph , 11 km/h
Temperature: 45°F , 7°C
Wind Chill: 41°F , 5°C
Dew Point: 43°F , 6°C
Humidity: 93%
Barometer: 30.14 inHg , 1020.7 hPa
Clouds: Partly cloudy
Visibility: 10 miles , 16 km
Cloud details: Partly cloudy 9000 ft
2024/04/19 05:35 KMYJ 190535Z AUTO 32006KT 10SM SCT090 07/06 A3014 RMK AO2
KVER - Boonville, Missouri, USA
Distance from station: WNW 41mi, 66km
Updated: Fri, 19-Apr-2024 12:35am CDT
Overcast
Overcast
 Wind from NW
Wind: NW 5 mph , 7 km/h
Temperature: 50°F , 10°C
Wind Chill: 48°F , 9°C
Dew Point: 46°F , 8°C
Humidity: 88%
Barometer: 30.18 inHg , 1022 hPa
Clouds: Overcast
Visibility: 10 miles , 16 km
Cloud details: Overcast 8500 ft
2024/04/19 05:35 KVER 190535Z AUTO 32004KT 10SM OVC085 10/08 A3018 RMK AO2 T00980075
 
KVIH - Vichy/Rolla, Missouri, USA
Distance from station: SSE 44mi, 71km
Updated: Fri, 19-Apr-2024 12:53am CDT
Overcast
Overcast
 Wind from N
Wind: N 13 mph , 20 km/h, Gust: 22 mph , 35 km/h
Temperature: 50°F , 10°C
Wind Chill: 45°F , 7°C
Dew Point: 45°F , 7°C
Humidity: 82%
Barometer: 30.13 inHg , 1020.3 hPa
Clouds: Overcast
Visibility: 10 miles , 16 km
Cloud details: Overcast 1200 ft
2024/04/19 05:53 KVIH 190553Z AUTO 35011G19KT 10SM OVC012 10/07 A3013 RMK AO2 SLP195 60013 T01000072 10133 20100 402830100 51008
KFYG - Washington, Missouri, USA
Distance from station: ESE 53mi, 86km
Updated: Fri, 19-Apr-2024 12:35am CDT
Partly cloudy
Partly cloudy
 Wind from WNW
Wind: WNW 12 mph , 19 km/h
Temperature: 54°F , 12°C
Dew Point: 50°F , 10°C
Humidity: 88%
Barometer: 30.11 inHg , 1019.6 hPa
Clouds: Partly cloudy
Visibility: 10 miles , 16 km
Cloud details: Few Clouds 2100 ft
Partly cloudy 6500 ft
2024/04/19 05:35 KFYG 190535Z AUTO 30010KT 270V340 10SM FEW021 SCT065 12/10 A3011 RMK AO2
 
KAIZ - Kaiser Mem, Missouri, USA
Distance from station: SW 54mi, 88km
Updated: Thu, 18-Apr-2024 11:56pm CDT
Overcast
Overcast
 Wind from varies
Wind: varies 7 mph , 11 km/h
Temperature: 50°F , 10°C
Wind Chill: 47°F , 8°C
Dew Point: 46°F , 8°C
Humidity: 88%
Barometer: 30.14 inHg , 1020.7 hPa
Clouds: Overcast
Visibility: 10 miles , 16 km
Cloud details: Overcast 1600 ft
2024/04/19 04:56 KAIZ 190456Z AUTO VRB06KT 10SM OVC016 10/08 A3014 RMK AO2 SLP202 T01000078 PNO $
KMBY - Moberly, Missouri, USA
Distance from station: NNW 55mi, 89km
Updated: Fri, 19-Apr-2024 12:35am CDT
Mostly cloudy
Mostly cloudy
 Wind from NW
Wind: NW 7 mph , 11 km/h
Temperature: 45°F , 7°C
Wind Chill: 41°F , 5°C
Dew Point: 41°F , 5°C
Humidity: 87%
Barometer: 30.17 inHg , 1021.7 hPa
Clouds: Mostly cloudy
Visibility: 10 miles , 16 km
Cloud details: Mostly cloudy 8500 ft
2024/04/19 05:35 KMBY 190535Z AUTO 31006KT 10SM BKN085 07/05 A3017 RMK AO2
 
KUUV - Sullivan, Missouri, USA
Distance from station: SE 56mi, 90km
Updated: Fri, 19-Apr-2024 12:35am CDT
Overcast
Overcast
 Wind from N
Wind: N 8 mph , 13 km/h, Gust: 16 mph , 26 km/h
Temperature: 50°F , 10°C
Wind Chill: 47°F , 8°C
Dew Point: 46°F , 8°C
Humidity: 88%
Barometer: 30.14 inHg , 1020.7 hPa
Clouds: Overcast
Visibility: 10 miles , 16 km
Cloud details: Overcast 1300 ft
2024/04/19 05:35 KUUV 190535Z AUTO 35007G14KT 10SM OVC013 10/08 A3014 RMK AO2 LTG DSNT E AND S
KDMO - Sedalia, Missouri, USA
Distance from station: W 65mi, 104km
Updated: Thu, 18-Apr-2024 11:53pm CDT
Mostly cloudy
Mostly cloudy
 Wind from N
Wind: N 7 mph , 11 km/h
Temperature: 48°F , 9°C
Wind Chill: 45°F , 7°C
Dew Point: 43°F , 6°C
Humidity: 82%
Barometer: 30.17 inHg , 1021.7 hPa
Clouds: Mostly cloudy
Visibility: 10 miles , 16 km
Cloud details: Mostly cloudy 8500 ft
2024/04/19 04:53 KDMO 190453Z AUTO 35006KT 10SM BKN085 09/06 A3017 RMK AO2 SLP214 T00890061 PNO $
 
KOZS - Camdenton, Missouri, USA
Distance from station: SW 67mi, 107km
Updated: Fri, 19-Apr-2024 12:35am CDT
Overcast
Overcast
 Wind from N
Wind: N 10 mph , 17 km/h, Gust: 18 mph , 30 km/h
Temperature: 50°F , 10°C
Wind Chill: 46°F , 8°C
Dew Point: 43°F , 6°C
Humidity: 76%
Barometer: 30.15 inHg , 1021 hPa
Clouds: Overcast
Visibility: 10 miles , 16 km
Cloud details: Mostly cloudy 1700 ft
Overcast 2400 ft
2024/04/19 05:35 KOZS 190535Z AUTO 01009G16KT 10SM BKN017 OVC024 10/06 A3015 RMK AO2
KMHL - Marshall, Missouri, USA
Distance from station: WNW 70mi, 113km
Updated: Fri, 19-Apr-2024 12:55am CDT
Overcast
Overcast
 Wind from NNW
Wind: NNW 12 mph , 19 km/h
Temperature: 46°F , 8°C
Wind Chill: 40°F , 4°C
Dew Point: 43°F , 6°C
Humidity: 87%
Barometer: 30.20 inHg , 1022.7 hPa
Clouds: Overcast
Visibility: 10 miles , 16 km
Cloud details: Overcast 8500 ft
2024/04/19 05:55 KMHL 190555Z AUTO 34010KT 10SM OVC085 08/06 A3020 RMK AO2
 
KSUS - St. Louis/Spirit, Missouri, USA
Distance from station: E 71mi, 115km
Updated: Thu, 18-Apr-2024 11:54pm CDT
Overcast
Overcast
 Wind from N
Wind: N 9 mph , 15 km/h, Gust: 20 mph , 31 km/h
Temperature: 52°F , 11°C
Dew Point: 48°F , 9°C
Humidity: 88%
Barometer: 30.07 inHg , 1018.3 hPa
Clouds: Overcast
Visibility: 10 miles , 16 km
Cloud details: Overcast 1600 ft
2024/04/19 04:54 KSUS 190454Z AUTO 35008G17KT 10SM OVC016 11/09 A3007 RMK AO2 SLP181 T01110089
KTBN - Fort Leonard Woo, Missouri, USA
Distance from station: S 72mi, 116km
Updated: Fri, 19-Apr-2024 12:40am CDT
Overcast
Overcast
 Wind from N
Wind: N 15 mph , 24 km/h, Gust: 24 mph , 39 km/h
Temperature: 52°F , 11°C
Dew Point: 48°F , 9°C
Humidity: 88%
Barometer: 30.09 inHg , 1019 hPa
Clouds: Overcast
Visibility: 10 miles , 16 km
Cloud details: Overcast 1100 ft
2024/04/19 05:40 KTBN 190540Z AUTO 35013G21KT 10SM OVC011 11/09 A3009 RMK AO2 SLP186
 
KHAE - Hannibal, Missouri, USA
Distance from station: NNE 73mi, 118km
Updated: Fri, 19-Apr-2024 12:55am CDT
Clear
Clear
 Wind from NNW
Wind: NNW 5 mph , 7 km/h
Temperature: 45°F , 7°C
Wind Chill: 42°F , 6°C
Dew Point: 41°F , 5°C
Humidity: 87%
Barometer: 30.14 inHg , 1020.7 hPa
Clouds: Clear
Visibility: 10 miles , 16 km
2024/04/19 05:55 KHAE 190555Z AUTO 33004KT 10SM CLR 07/05 A3014 RMK AO2